Latest Weather Observations for Mount Gellibrand

IDV60801

Issued at 2:35 pm EST Monday 21 April 2014 (issued every 30 minutes, with the page automatically refreshed every 10 minutes)

About weather observations | Map of weather stations | Latest weather observations for VIC | Other Formats
Station Details ID: 090035 Name: MOUNT GELLIBRAND Lat: -38.23 Lon: 143.79 Height: 261.0 m
Data from the previous 72 hours. | See also: Recent months at Mount Gellibrand
Date/Time
EST
Temp
°C
App
Temp
°C
Dew
Point
Rel
Hum
%
Delta-T
°C
Wind Press
QNH
hPa
Press
MSL
hPa
Rain
since 9 am
mm
Dir
 
Spd
km/h
Gust
km/h
Spd
kts
Gust
kts
21/02:30pm 19.6 8.3 7.0 44 6.5 N 56 65 30 35 1012.3 - 0.0
21/02:00pm 18.4 7.8 6.9 47 5.8 N 52 59 28 32 1012.8 1012.5 0.0
21/01:30pm 17.8 8.3 6.7 48 5.6 N 46 54 25 29 1013.8 - 0.0
21/01:00pm 17.4 7.5 6.6 49 5.4 NNW 48 59 26 32 1014.6 1014.3 0.0
21/12:30pm 17.3 6.2 6.2 48 5.5 NNW 54 65 29 35 1014.4 - 0.0
21/12:13pm 18.2 7.4 6.1 45 6.0 N 52 70 28 38 1014.2 - 0.0
21/12:00pm 19.1 7.4 6.2 43 6.5 N 57 67 31 36 1014.3 1014.0 0.0
21/11:30am 17.2 7.6 6.4 49 5.4 N 46 59 25 32 1014.9 - 0.0
21/11:00am 17.6 8.6 6.5 48 5.6 N 43 59 23 32 1015.5 1015.3 0.0
21/10:30am 16.7 8.9 6.8 52 5.0 NNW 37 46 20 25 1016.3 - 0.0
21/10:00am 16.1 9.0 8.1 59 4.1 NNW 35 46 19 25 1016.6 1016.3 0.0
21/09:30am 14.7 7.7 8.4 66 3.2 NNW 35 43 19 23 1016.9 - 0.0
21/09:00am 13.5 8.0 9.2 75 2.2 NNW 28 33 15 18 1017.4 1017.1 0.0
21/08:30am 12.0 6.7 9.7 86 1.2 NNW 28 35 15 19 1017.5 - 0.0
21/08:00am 11.3 5.9 9.6 89 0.9 NNW 28 33 15 18 1017.2 1016.9 0.0
21/07:30am 11.0 6.0 9.4 90 0.8 NNW 26 32 14 17 1017.1 - 0.0
21/07:00am 10.9 6.3 9.5 91 0.7 NNW 24 28 13 15 1017.0 1016.7 0.0
21/06:30am 10.7 6.0 9.3 91 0.7 NNW 24 28 13 15 1017.0 - 0.0
21/06:00am 10.2 5.0 8.8 91 0.7 NNW 26 28 14 15 1016.8 1016.5 0.0
21/05:30am 10.1 5.2 8.5 90 0.8 NNW 24 28 13 15 1016.8 - 0.0
21/05:00am 10.4 4.7 8.3 87 1.0 NNW 28 33 15 18 1016.4 1016.1 0.0
21/04:30am 10.5 5.2 8.4 87 1.0 NNW 26 30 14 16 1016.4 - 0.0
21/04:00am 10.2 5.0 8.8 91 0.7 NNW 26 30 14 16 1016.5 1016.2 0.0
21/03:30am 10.4 5.2 8.7 89 0.8 NNW 26 30 14 16 1016.4 - 0.0
21/03:00am 10.5 5.4 9.1 91 0.7 NNW 26 32 14 17 1016.7 1016.4 0.0
21/02:30am 10.2 4.8 9.4 95 0.4 NNW 28 32 15 17 1016.8 - 0.0
21/02:00am 10.9 6.3 9.7 92 0.6 NNW 24 28 13 15 1017.0 1016.7 0.0
21/01:30am 11.1 6.2 9.9 92 0.6 NW 26 30 14 16 1016.9 - 0.0
21/01:00am 11.5 5.9 10.1 91 0.7 NW 30 33 16 18 1016.9 1016.6 0.0
21/12:30am 12.0 7.4 10.9 93 0.6 NW 26 28 14 15 1016.9 - 0.0
21/12:00am 12.4 8.2 11.0 91 0.7 NW 24 32 13 17 1016.9 1016.6 0.0
 
Date/Time
EST
Temp
°C
App
Temp
°C
Dew
Point
Rel
Hum
%
Delta-T
°C
Wind Press
QNH
hPa
Press
MSL
hPa
Rain
since 9 am
mm
Dir
 
Spd
km/h
Gust
km/h
Spd
kts
Gust
kts
20/11:30pm 14.0 11.1 11.0 82 1.6 N 17 22 9 12 1016.8 - 0.0
20/11:00pm 13.8 11.5 13.0 95 0.4 N 17 22 9 12 1017.1 1016.8 0.0
20/10:30pm 12.7 11.5 12.7 100 0.0 NNE 11 13 6 7 1017.4 - 0.0
20/10:00pm 12.4 11.1 12.4 100 0.0 NNE 11 13 6 7 1017.4 1017.1 0.0
20/09:30pm 12.6 12.1 12.6 100 0.0 N 7 7 4 4 1017.4 - 0.0
20/09:00pm 13.7 13.5 13.7 100 0.0 NW 7 9 4 5 1017.3 1017.0 0.0
20/08:30pm 13.2 12.9 13.2 100 0.0 SSW 7 7 4 4 1017.3 - 0.0
20/08:00pm 13.0 12.6 13.0 100 0.0 SSW 7 7 4 4 1017.3 1017.0 0.0
20/07:30pm 13.3 12.6 13.3 100 0.0 SSW 9 13 5 7 1017.2 - 0.0
20/07:00pm 13.4 12.0 13.4 100 0.0 SW 13 15 7 8 1017.1 1016.8 0.0
20/06:30pm 14.0 11.4 13.2 95 0.4 SW 19 26 10 14 1016.8 - 0.0
20/06:00pm 15.4 12.0 9.3 67 3.2 W 17 24 9 13 1016.5 1016.2 0.0
20/05:30pm 15.7 12.9 8.4 62 3.7 W 13 17 7 9 1016.2 - 0.0
20/05:00pm 16.1 12.9 8.6 61 3.9 WNW 15 19 8 10 1016.0 1015.7 0.0
20/04:30pm 16.3 11.3 8.0 58 4.2 W 24 30 13 16 1015.7 - 0.0
20/04:00pm 16.9 12.8 8.6 58 4.3 WNW 20 26 11 14 1015.7 1015.5 0.0
20/03:30pm 16.6 11.8 8.8 60 4.1 W 24 33 13 18 1015.7 - 0.0
20/03:00pm 16.4 10.4 8.6 60 4.0 WNW 30 41 16 22 1015.5 1015.3 0.0
20/02:30pm 17.1 11.2 7.7 54 4.8 WNW 28 39 15 21 1015.5 - 0.0
20/02:00pm 16.3 10.3 7.0 54 4.7 W 28 37 15 20 1015.4 1015.2 0.0
20/01:30pm 16.7 10.3 6.8 52 5.0 WNW 30 41 16 22 1015.6 - 0.0
20/01:00pm 16.3 9.6 7.3 55 4.5 WNW 32 43 17 23 1015.9 1015.6 0.0
20/12:30pm 15.5 8.6 6.5 55 4.4 W 32 44 17 24 1016.2 - 0.0
20/12:00pm 15.7 9.2 6.7 55 4.5 WNW 30 39 16 21 1016.7 1016.4 0.0
20/11:30am 15.2 8.4 6.7 57 4.2 WNW 32 43 17 23 1016.9 - 0.0
20/11:00am 16.1 8.7 6.8 54 4.6 NW 35 44 19 24 1016.9 1016.6 0.0
20/10:30am 15.5 8.5 6.2 54 4.6 WNW 32 43 17 23 1017.1 - 0.0
20/10:00am 13.4 7.2 7.8 69 2.8 WNW 30 37 16 20 1017.3 1017.0 0.0
20/09:30am 13.1 9.3 11.2 88 1.0 NW 22 28 12 15 1017.5 - 0.0
20/09:00am 12.0 8.8 11.8 99 0.1 NW 20 24 11 13 1017.4 1017.1 0.0
20/08:30am 10.7 7.3 10.7 100 0.0 WNW 19 24 10 13 1017.3 - 0.0
20/08:00am 10.4 7.3 10.4 100 0.0 WNW 17 20 9 11 1017.2 1016.9 0.0
20/07:30am 9.9 6.7 9.9 100 0.0 NW 17 20 9 11 1016.9 - 0.0
20/07:00am 9.5 5.8 9.5 100 0.0 NW 19 22 10 12 1016.6 1016.3 0.0
20/06:30am 9.1 5.3 9.1 100 0.0 NW 19 22 10 12 1016.5 - 0.0
20/06:00am 9.2 5.4 9.2 100 0.0 NNW 19 20 10 11 1016.4 1016.1 0.0
20/05:30am 9.2 5.8 9.2 100 0.0 NNW 17 19 9 10 1016.3 - 0.0
20/05:00am 9.1 6.1 9.1 100 0.0 NNW 15 19 8 10 1016.1 1015.8 0.0
20/04:30am 9.1 5.7 9.1 100 0.0 NW 17 19 9 10 1016.1 - 0.0
20/04:00am 9.2 6.2 9.2 100 0.0 NW 15 17 8 9 1016.3 1016.0 0.0
20/03:30am 9.2 6.2 9.2 100 0.0 NW 15 17 8 9 1016.4 - 0.0
20/03:00am 9.3 6.7 9.3 100 0.0 NW 13 15 7 8 1016.6 1016.3 0.0
20/02:30am 9.4 7.2 9.4 100 0.0 NW 11 13 6 7 1016.7 - 0.0
20/02:00am 9.7 7.6 9.7 100 0.0 WNW 11 13 6 7 1017.0 1016.7 0.0
20/01:30am 9.7 8.0 9.7 100 0.0 W 9 11 5 6 1017.1 - 0.0
20/01:00am 9.8 7.7 9.8 100 0.0 W 11 13 6 7 1017.2 1016.9 0.0
20/12:30am 9.9 8.2 9.9 100 0.0 W 9 11 5 6 1017.3 - 0.0
20/12:00am 10.1 7.7 10.1 100 0.0 WSW 13 17 7 9 1017.4 1017.1 0.0
 
Date/Time
EST
Temp
°C
App
Temp
°C
Dew
Point
Rel
Hum
%
Delta-T
°C
Wind Press
QNH
hPa
Press
MSL
hPa
Rain
since 9 am
mm
Dir
 
Spd
km/h
Gust
km/h
Spd
kts
Gust
kts
19/11:30pm 10.3 8.7 10.3 100 0.0 W 9 11 5 6 1017.6 - 0.0
19/11:00pm 10.4 9.2 10.4 100 0.0 W 7 9 4 5 1017.9 1017.6 0.0
19/10:30pm 10.6 9.1 10.6 100 0.0 WSW 9 11 5 6 1018.2 - 0.0
19/10:00pm 10.6 9.1 10.4 99 0.1 WSW 9 11 5 6 1018.2 1017.9 0.0
19/09:30pm 10.4 8.9 10.4 100 0.0 SW 9 9 5 5 1018.4 - 0.0
19/09:00pm 10.5 9.4 10.5 100 0.0 SW 7 9 4 5 1018.5 1018.2 0.0
19/08:30pm 10.7 9.8 10.5 99 0.1 SSW 6 7 3 4 1018.5 - 0.0
19/08:00pm 10.9 10.0 10.7 99 0.1 SSW 6 7 3 4 1018.6 1018.4 0.0
19/07:30pm 10.9 10.0 10.7 99 0.1 SSW 6 7 3 4 1018.6 - 0.0
19/07:00pm 11.0 10.1 10.8 99 0.1 SSW 6 7 3 4 1018.7 1018.5 0.0
19/06:30pm 11.4 10.8 10.5 94 0.5 SSW 4 6 2 3 1018.6 - 0.0
19/06:00pm 11.4 9.6 9.5 88 1.0 SW 9 9 5 5 1018.5 1018.2 0.0
19/05:30pm 12.0 9.1 8.3 78 1.8 SW 13 17 7 9 1018.4 - 0.0
19/05:00pm 12.4 10.3 9.6 83 1.4 WSW 11 15 6 8 1018.4 1018.1 0.0
19/04:30pm 12.7 10.1 9.2 79 1.8 WSW 13 17 7 9 1018.5 - 0.0
19/04:00pm 12.5 10.0 9.7 83 1.4 WSW 13 19 7 10 1018.8 1018.6 0.0
19/03:30pm 12.6 9.2 11.3 92 0.7 SW 20 26 11 14 1018.6 - 0.0
19/03:00pm 13.0 9.3 9.3 78 1.9 SW 19 26 10 14 1018.7 1018.5 0.0
19/02:30pm 12.8 9.0 8.9 77 2.0 WSW 19 26 10 14 1018.8 - 0.0
19/02:00pm 13.3 10.1 8.6 73 2.4 WSW 15 19 8 10 1019.0 1018.8 0.0
19/01:30pm 12.3 8.5 9.9 85 1.2 SW 20 26 11 14 1019.3 - 0.0
19/01:00pm 13.3 9.6 9.5 78 2.0 WSW 19 24 10 13 1019.5 1019.3 0.0
19/12:30pm 12.2 7.8 11.6 96 0.3 WSW 26 35 14 19 1020.0 - 0.0
19/12:12pm 12.6 7.0 11.5 93 0.6 WSW 32 37 17 20 1020.1 - 0.0
19/12:00pm 13.1 11.4 11.3 89 1.0 WSW 11 19 6 10 1020.4 1020.1 0.0
19/11:30am 12.3 9.7 10.7 90 0.8 SW 15 28 8 15 1020.7 - 0.0
19/11:00am 12.9 10.8 11.1 89 1.0 SSW 13 20 7 11 1020.8 1020.5 0.0
19/10:30am 13.3 10.6 12.8 97 0.3 SW 19 24 10 13 1020.9 - 0.0
19/10:00am 12.3 9.7 12.0 98 0.2 WSW 17 22 9 12 1021.0 1020.7 0.0
19/09:30am 11.7 9.4 11.7 100 0.0 W 15 20 8 11 1021.0 - 0.0
19/09:00am 10.4 7.7 10.4 100 0.0 W 15 20 8 11 1021.0 1020.7 0.8
19/08:30am 9.9 7.1 9.9 100 0.0 WSW 15 19 8 10 1020.8 - 0.8
19/08:00am 9.4 6.4 9.4 100 0.0 W 15 22 8 12 1020.5 1020.2 0.8
19/07:30am 9.1 5.7 9.1 100 0.0 W 17 20 9 11 1020.3 - 0.8
19/07:00am 9.3 5.9 9.3 100 0.0 WSW 17 19 9 10 1019.9 1019.6 0.8
19/06:30am 9.4 6.1 9.4 100 0.0 WSW 17 20 9 11 1019.7 - 0.8
19/06:00am 9.3 5.9 9.3 100 0.0 WSW 17 19 9 10 1019.6 1019.4 0.8
19/05:30am 9.2 6.2 9.2 100 0.0 W 15 20 8 11 1019.5 - 0.8
19/05:00am 8.6 4.1 8.6 100 0.0 WSW 22 26 12 14 1019.4 1019.2 0.8
19/04:30am 8.4 5.6 8.4 100 0.0 W 13 19 7 10 1019.3 - 0.8
19/04:00am 8.8 5.3 8.8 100 0.0 WSW 17 19 9 10 1019.4 1019.2 0.8
19/03:30am 9.1 5.1 9.1 100 0.0 SW 20 24 11 13 1019.5 - 0.8
19/03:00am 8.9 5.4 8.9 100 0.0 W 17 22 9 12 1019.6 1019.4 0.8
19/02:30am 8.6 5.4 8.6 100 0.0 W 15 19 8 10 1019.9 - 0.8
19/02:00am 8.5 4.9 8.5 100 0.0 WSW 17 19 9 10 1020.1 1019.8 0.8
19/01:30am 9.8 6.2 9.8 100 0.0 SW 19 20 10 11 1020.1 - 0.8
19/01:00am 8.9 5.1 8.9 100 0.0 WSW 19 20 10 11 1020.3 1020.0 0.8
19/12:30am 8.7 4.8 8.7 100 0.0 WSW 19 20 10 11 1020.2 - 0.8
19/12:00am 8.9 4.9 8.9 100 0.0 WSW 20 20 11 11 1020.2 1019.9 0.8
 
Date/Time
EST
Temp
°C
App
Temp
°C
Dew
Point
Rel
Hum
%
Delta-T
°C
Wind Press
QNH
hPa
Press
MSL
hPa
Rain
since 9 am
mm
Dir
 
Spd
km/h
Gust
km/h
Spd
kts
Gust
kts
18/11:30pm 9.4 5.5 9.4 100 0.0 WSW 20 22 11 12 1020.2 - 0.8
18/11:00pm 9.2 4.9 9.2 100 0.0 WSW 22 24 12 13 1020.4 1020.1 0.8
18/10:30pm 9.1 4.7 9.1 100 0.0 WSW 22 28 12 15 1020.4 - 0.8
18/10:00pm 8.6 5.1 8.6 100 0.0 WSW 17 20 9 11 1020.4 1020.1 0.8
18/09:30pm 8.9 4.9 8.9 100 0.0 WSW 20 24 11 13 1020.4 - 0.8
18/09:00pm 9.1 5.7 9.1 100 0.0 WSW 17 19 9 10 1020.3 1020.0 0.8
18/08:30pm 9.3 5.4 9.3 100 0.0 SW 20 26 11 14 1020.1 - 0.8
18/08:04pm 9.2 3.3 9.2 100 0.0 SSW 30 50 16 27 1020.0 - 0.8
18/08:00pm 9.1 2.6 9.1 100 0.0 SSW 33 50 18 27 1020.0 1019.7 0.8
18/07:52pm 9.2 3.7 9.2 100 0.0 SSW 28 43 15 23 1019.9 - 0.8
18/07:30pm 10.6 7.6 10.6 100 0.0 SW 17 20 9 11 1019.9 - 0.8
18/07:00pm 10.2 6.5 10.1 99 0.1 SSW 20 26 11 14 1019.6 1019.4 0.8
18/06:30pm 11.0 6.2 10.2 95 0.4 SSW 26 32 14 17 1019.3 - 0.8
18/06:00pm 11.0 6.4 11.0 100 0.0 SW 26 32 14 17 1019.1 1018.9 0.8
18/05:30pm 11.3 7.5 11.3 100 0.0 WSW 22 26 12 14 1018.9 - 0.8
18/05:00pm 12.0 6.7 11.1 94 0.5 WSW 30 33 16 18 1018.8 1018.6 0.8
18/04:30pm 12.6 5.6 9.8 83 1.5 SSW 37 56 20 30 1018.1 - 0.8
18/04:29pm 12.6 5.5 9.6 82 1.5 SSW 37 56 20 30 1018.0 - 0.8
18/04:00pm 14.6 7.2 6.7 59 3.9 WSW 35 46 19 25 1017.8 1017.5 0.8
18/03:30pm 14.7 7.8 6.5 58 4.0 SW 32 44 17 24 1017.6 - 0.8
18/03:00pm 14.0 5.7 5.9 58 3.9 SW 39 50 21 27 1017.3 1017.0 0.8

Other Formats:

Comma delimited format used in spreadsheet applications
http://www.bom.gov.au/fwo/IDV60801/IDV60801.95845.axf

JavaScript Object Notation format (JSON) in row-major order
http://www.bom.gov.au/fwo/IDV60801/IDV60801.95845.json